Capt Eddie — WDC3053 — position and weather

sailwx.info

Track history (hours):
 
Tides and Currents Weather Stations Pressure Air Temp Water Temp Dewpoint Dewpoint Depression Visibility Wind Speed Wind Dir Waves Ship Positions

Capt Eddie

Owner: CENTRAL BOAT RENTALS, BERWICK, LA. More information available from US FCC via Universal Licensing System and Coast Guard Vessel Documentation Center.

Last reported at 2017-Sep-17 16:21 UTC. Time now 2017-Sep-21 01:44 UTC.
Position N 30°04' W 093°37'.

Length 20 m; draft 2 m.

Type: Tug. MMSI: 367002050.

Date/timePositionNaut miles runAvg speedWind from/ knotsBaromVisibWave heightAir tempDewpointWater temp
2017-Sep-17 16:21N 30°04' W 093°37'3 4.2
2017-Sep-17 15:42N 30°04' W 093°34'1 4.2
2017-Sep-17 15:29N 30°04' W 093°33'2 4.1
2017-Sep-17 15:01N 30°04' W 093°31'2 4.1
2017-Sep-17 14:31N 30°04' W 093°28'2 4.1
2017-Sep-17 14:00N 30°04' W 093°26'2 4.2
2017-Sep-17 13:31N 30°04' W 093°24'2 4.6
2017-Sep-17 13:01N 30°04' W 093°21'2 4.5
2017-Sep-17 12:31N 30°06' W 093°19'1 1.0
2017-Sep-17 11:59N 30°06' W 093°19'0 0.2
2017-Sep-17 11:30N 30°06' W 093°19'0 0.1
2017-Sep-17 11:00N 30°06' W 093°19'0 0.1
2017-Sep-17 10:30N 30°06' W 093°19'0 0.1
2017-Sep-17 10:00N 30°06' W 093°19'0 0.0
2017-Sep-17 09:30N 30°06' W 093°19'0 0.3
2017-Sep-17 08:58N 30°06' W 093°19'1 1.2
2017-Sep-17 08:31N 30°06' W 093°18'2 4.3
2017-Sep-17 08:01N 30°04' W 093°16'1 1.9
2017-Sep-17 07:29N 30°04' W 093°16'0 0.0
2017-Sep-17 07:00N 30°04' W 093°16'0 0.0
2017-Sep-17 06:30N 30°04' W 093°16'2 3.1
2017-Sep-17 06:01N 30°02' W 093°15'2 4.4
2017-Sep-17 05:30N 30°00' W 093°14'3 5.0
2017-Sep-17 04:56N 29°58' W 093°12'2 4.9
2017-Sep-17 04:31N 29°57' W 093°10'2 4.4
2017-Sep-17 04:00N 29°56' W 093°08'2 4.7
2017-Sep-17 03:30N 29°56' W 093°05'3 4.6
2017-Sep-17 02:53N 29°56' W 093°02'2 4.5
2017-Sep-17 02:30N 29°56' W 092°60'36 3.7
2017-Sep-16 16:39N 29°50' W 092°18'2 3.7
2017-Sep-16 16:12N 29°49' W 092°17'1 3.8
2017-Sep-16 16:01N 29°49' W 092°16'2 3.8
2017-Sep-16 15:31N 29°48' W 092°14'2 3.7
2017-Sep-16 15:01N 29°47' W 092°12'2 3.9
2017-Sep-16 14:31N 29°47' W 092°10'2 4.0
2017-Sep-16 14:00N 29°47' W 092°08'2 3.2
2017-Sep-16 13:30N 29°48' W 092°06'2 3.9
2017-Sep-16 13:00N 29°48' W 092°04'2 4.0
2017-Sep-16 12:28N 29°49' W 092°02'  
2017-Sep-08 00:21N 29°32' W 090°47'2 5.9
2017-Sep-08 00:00N 29°34' W 090°45'2 4.0
2017-Sep-07 23:30N 29°34' W 090°43'3 6.6
2017-Sep-07 23:00N 29°30' W 090°43'  
Track history (hours):
 
Tides and Currents Weather Stations Pressure Air Temp Water Temp Dewpoint Dewpoint Depression Visibility Wind Speed Wind Dir Waves Ship Positions

Capt Eddie

Owner: CENTRAL BOAT RENTALS, BERWICK, LA. More information available from US FCC via Universal Licensing System and Coast Guard Vessel Documentation Center.

Last reported at 2017-Sep-17 16:21 UTC. Time now 2017-Sep-21 01:44 UTC.
Position N 30°04' W 093°37'.

Length 20 m; draft 2 m.

Type: Tug. MMSI: 367002050.

Date/timePositionNaut miles runAvg speedWind from/ knotsBaromVisibWave heightAir tempDewpointWater temp
2017-Sep-17 16:21N 30°04' W 093°37'3 4.2
2017-Sep-17 15:42N 30°04' W 093°34'1 4.2
2017-Sep-17 15:29N 30°04' W 093°33'2 4.1
2017-Sep-17 15:01N 30°04' W 093°31'2 4.1
2017-Sep-17 14:31N 30°04' W 093°28'2 4.1
2017-Sep-17 14:00N 30°04' W 093°26'2 4.2
2017-Sep-17 13:31N 30°04' W 093°24'2 4.6
2017-Sep-17 13:01N 30°04' W 093°21'2 4.5
2017-Sep-17 12:31N 30°06' W 093°19'1 1.0
2017-Sep-17 11:59N 30°06' W 093°19'0 0.2
2017-Sep-17 11:30N 30°06' W 093°19'0 0.1
2017-Sep-17 11:00N 30°06' W 093°19'0 0.1
2017-Sep-17 10:30N 30°06' W 093°19'0 0.1
2017-Sep-17 10:00N 30°06' W 093°19'0 0.0
2017-Sep-17 09:30N 30°06' W 093°19'0 0.3
2017-Sep-17 08:58N 30°06' W 093°19'1 1.2
2017-Sep-17 08:31N 30°06' W 093°18'2 4.3
2017-Sep-17 08:01N 30°04' W 093°16'1 1.9
2017-Sep-17 07:29N 30°04' W 093°16'0 0.0
2017-Sep-17 07:00N 30°04' W 093°16'0 0.0
2017-Sep-17 06:30N 30°04' W 093°16'2 3.1
2017-Sep-17 06:01N 30°02' W 093°15'2 4.4
2017-Sep-17 05:30N 30°00' W 093°14'3 5.0
2017-Sep-17 04:56N 29°58' W 093°12'2 4.9
2017-Sep-17 04:31N 29°57' W 093°10'2 4.4
2017-Sep-17 04:00N 29°56' W 093°08'2 4.7
2017-Sep-17 03:30N 29°56' W 093°05'3 4.6
2017-Sep-17 02:53N 29°56' W 093°02'2 4.5
2017-Sep-17 02:30N 29°56' W 092°60'36 3.7
2017-Sep-16 16:39N 29°50' W 092°18'2 3.7
2017-Sep-16 16:12N 29°49' W 092°17'1 3.8
2017-Sep-16 16:01N 29°49' W 092°16'2 3.8
2017-Sep-16 15:31N 29°48' W 092°14'2 3.7
2017-Sep-16 15:01N 29°47' W 092°12'2 3.9
2017-Sep-16 14:31N 29°47' W 092°10'2 4.0
2017-Sep-16 14:00N 29°47' W 092°08'2 3.2
2017-Sep-16 13:30N 29°48' W 092°06'2 3.9
2017-Sep-16 13:00N 29°48' W 092°04'2 4.0
2017-Sep-16 12:28N 29°49' W 092°02'  
2017-Sep-08 00:21N 29°32' W 090°47'2 5.9
2017-Sep-08 00:00N 29°34' W 090°45'2 4.0
2017-Sep-07 23:30N 29°34' W 090°43'3 6.6
2017-Sep-07 23:00N 29°30' W 090°43'  

Dump ship's entire track history